Time;durP1;ratioP1;P1;durP2;ratioP2;P2;SDS_P1;SDS_P2;PMS_P1;PMS_P2;Temp;Humidity;BMP_temperature;BMP_pressure;BME280_temperature;BME280_humidity;BME280_pressure;Samples;Min_cycle;Max_cycle;Signal;HPM_P1;HPM_P2
2023/11/01 00:01:36;;;;;;;4.60;2.40;;;11.70;99.90;;;;;;4989416;28;20472;-76
2023/11/01 00:04:02;;;;;;;1.80;1.70;;;11.70;99.90;;;;;;4983349;28;20886;-74
2023/11/01 00:06:28;;;;;;;5.00;2.40;;;11.70;99.90;;;;;;4983092;28;20497;-75
2023/11/01 00:08:55;;;;;;;2.80;1.87;;;11.70;99.90;;;;;;4964336;28;20229;-75
2023/11/01 00:11:21;;;;;;;2.77;1.43;;;11.70;99.90;;;;;;4983028;28;20246;-75
2023/11/01 00:13:46;;;;;;;1.97;1.70;;;11.70;99.90;;;;;;4962524;28;20512;-74
2023/11/01 00:16:12;;;;;;;1.60;1.13;;;11.70;99.90;;;;;;4982407;28;20241;-75
2023/11/01 00:18:38;;;;;;;1.73;1.53;;;11.70;99.90;;;;;;4997112;28;20222;-75
2023/11/01 00:21:04;;;;;;;6.10;1.60;;;11.60;99.90;;;;;;5015546;28;20245;-75
2023/11/01 00:23:29;;;;;;;2.33;1.60;;;11.60;99.90;;;;;;4967386;28;20257;-76
2023/11/01 00:25:56;;;;;;;2.03;1.83;;;11.70;99.90;;;;;;4982459;28;20227;-76
2023/11/01 00:28:22;;;;;;;9.33;1.57;;;11.70;99.90;;;;;;4993795;28;20222;-76
2023/11/01 00:30:47;;;;;;;2.23;1.73;;;11.70;99.90;;;;;;5002591;28;20479;-75
2023/11/01 00:33:13;;;;;;;1.47;1.40;;;11.70;99.90;;;;;;4989445;28;20218;-74
2023/11/01 00:35:39;;;;;;;2.23;2.03;;;11.70;99.90;;;;;;4996172;28;20229;-76
2023/11/01 00:38:07;;;;;;;2.43;1.70;;;11.70;99.90;;;;;;4994097;28;20249;-74
2023/11/01 00:40:33;;;;;;;1.73;1.63;;;11.70;99.90;;;;;;4967376;28;20226;-75
2023/11/01 00:42:59;;;;;;;1.90;1.80;;;11.70;99.90;;;;;;4983419;28;20453;-75
2023/11/01 00:45:25;;;;;;;1.93;1.70;;;11.70;99.90;;;;;;4993100;28;20206;-75
2023/11/01 00:47:51;;;;;;;1.80;1.60;;;11.80;99.90;;;;;;5003701;28;20210;-75
2023/11/01 00:50:16;;;;;;;2.20;1.93;;;11.70;99.90;;;;;;4998429;28;20587;-74
2023/11/01 00:52:44;;;;;;;1.80;1.70;;;11.70;99.90;;;;;;4997468;28;20700;-75
2023/11/01 00:55:09;;;;;;;2.10;1.83;;;11.70;99.90;;;;;;4998786;28;20223;-75
2023/11/01 00:57:35;;;;;;;2.67;2.00;;;11.70;99.90;;;;;;5001341;28;20473;-74
2023/11/01 01:00:01;;;;;;;3.90;1.97;;;11.60;99.90;;;;;;4985249;28;20219;-75
2023/11/01 01:02:27;;;;;;;1.90;1.60;;;11.70;99.90;;;;;;5017712;28;20218;-75
2023/11/01 01:04:53;;;;;;;1.80;1.70;;;11.70;99.90;;;;;;5000736;28;20829;-76
2023/11/01 01:07:19;;;;;;;5.27;1.97;;;11.60;99.90;;;;;;4986926;28;20238;-75
2023/11/01 01:09:45;;;;;;;5.20;2.40;;;11.70;99.90;;;;;;4983983;28;20218;-76
2023/11/01 01:12:10;;;;;;;1.73;1.63;;;11.70;99.90;;;;;;4967792;28;21073;-72
2023/11/01 01:14:36;;;;;;;2.03;1.90;;;11.70;99.90;;;;;;4984274;28;20235;-75
2023/11/01 01:17:02;;;;;;;3.10;1.77;;;11.70;99.90;;;;;;5001622;28;20258;-75
2023/11/01 01:19:28;;;;;;;2.47;1.70;;;11.70;99.90;;;;;;5003161;28;20501;-76
2023/11/01 01:21:53;;;;;;;2.63;1.60;;;11.70;99.90;;;;;;4999742;28;20237;-75
2023/11/01 01:24:19;;;;;;;2.00;1.90;;;11.70;99.90;;;;;;4987062;28;20214;-75
2023/11/01 01:26:46;;;;;;;2.13;2.03;;;11.70;99.90;;;;;;5000273;28;20219;-75
2023/11/01 01:29:12;;;;;;;2.30;1.67;;;11.60;99.90;;;;;;5015115;28;20280;-75
2023/11/01 01:31:37;;;;;;;3.07;1.97;;;11.70;99.90;;;;;;4999998;28;20470;-75
2023/11/01 01:34:03;;;;;;;1.97;1.87;;;11.70;99.90;;;;;;4985991;28;20729;-75
2023/11/01 01:36:29;;;;;;;2.53;1.53;;;11.70;99.90;;;;;;4985382;28;20219;-75
2023/11/01 01:38:54;;;;;;;2.60;1.50;;;11.60;99.90;;;;;;4998145;28;20246;-76
2023/11/01 01:41:20;;;;;;;2.13;1.67;;;11.70;99.90;;;;;;4980991;28;20218;-75
2023/11/01 01:43:46;;;;;;;2.00;1.83;;;11.70;99.90;;;;;;5015027;28;20221;-75
2023/11/01 01:46:15;;;;;;;2.93;1.77;;;11.70;99.90;;;;;;4983659;28;20214;-75
2023/11/01 01:48:43;;;;;;;2.77;1.87;;;11.70;99.90;;;;;;4991182;28;20469;-75
2023/11/01 01:51:10;;;;;;;2.77;2.10;;;11.70;99.90;;;;;;4985301;28;20456;-75
2023/11/01 01:53:39;;;;;;;2.73;1.73;;;11.70;99.90;;;;;;4965746;28;20470;-75
2023/11/01 01:56:06;;;;;;;2.23;1.90;;;11.60;99.90;;;;;;4983573;28;20458;-75
2023/11/01 01:58:32;;;;;;;4.03;2.60;;;11.70;99.90;;;;;;4986333;28;20517;-76
2023/11/01 02:00:59;;;;;;;2.63;2.00;;;11.70;99.90;;;;;;4993865;28;20464;-75
2023/11/01 02:03:26;;;;;;;1.50;1.40;;;11.70;99.90;;;;;;4973105;28;20467;-75
2023/11/01 02:05:52;;;;;;;6.10;1.90;;;11.80;99.90;;;;;;4981960;28;20532;-76
2023/11/01 02:08:18;;;;;;;6.00;1.50;;;11.80;99.90;;;;;;4985901;28;20490;-75
2023/11/01 02:10:44;;;;;;;2.97;1.80;;;11.80;99.90;;;;;;4982967;28;20872;-74
2023/11/01 02:13:11;;;;;;;2.30;1.77;;;11.80;99.90;;;;;;4985437;28;20456;-75
2023/11/01 02:15:38;;;;;;;3.03;2.13;;;11.80;99.90;;;;;;4990519;28;20245;-75
2023/11/01 02:18:04;;;;;;;4.33;1.80;;;11.80;99.90;;;;;;4984385;28;20483;-75
2023/11/01 02:20:33;;;;;;;1.70;1.60;;;11.80;99.90;;;;;;4983330;28;20465;-75
2023/11/01 02:22:59;;;;;;;2.53;2.33;;;11.70;99.90;;;;;;4968850;28;20545;-76
2023/11/01 02:25:25;;;;;;;2.37;1.87;;;11.70;99.90;;;;;;5003890;28;20536;-75
2023/11/01 02:27:51;;;;;;;1.70;1.60;;;11.70;99.90;;;;;;4985981;28;20211;-75
2023/11/01 02:30:17;;;;;;;1.97;1.63;;;11.80;99.90;;;;;;4990554;28;20302;-76
2023/11/01 02:32:49;;;;;;;2.53;1.90;;;11.80;99.90;;;;;;4983700;28;20895;-75
2023/11/01 02:35:15;;;;;;;1.60;1.50;;;11.80;99.90;;;;;;4991176;28;20214;-76
2023/11/01 02:37:41;;;;;;;4.23;1.60;;;11.80;99.90;;;;;;4998531;28;20468;-75
2023/11/01 02:40:09;;;;;;;2.03;1.50;;;11.80;99.90;;;;;;4973139;28;20461;-76
2023/11/01 02:42:39;;;;;;;3.87;2.00;;;11.90;99.90;;;;;;4971114;28;20210;-75
2023/11/01 02:45:09;;;;;;;7.10;2.53;;;11.80;99.90;;;;;;4984264;28;20449;-75
2023/11/01 02:47:38;;;;;;;8.37;2.60;;;11.80;99.90;;;;;;4971229;28;20462;-75
2023/11/01 02:50:05;;;;;;;2.03;1.93;;;11.80;99.90;;;;;;4982154;28;20450;-76
2023/11/01 02:52:34;;;;;;;5.00;1.53;;;11.80;99.90;;;;;;4984920;28;20533;-76
2023/11/01 02:55:05;;;;;;;5.43;1.63;;;11.80;99.90;;;;;;4981522;28;21002;-75
2023/11/01 02:57:34;;;;;;;4.50;1.53;;;11.80;99.90;;;;;;4984048;28;20832;-75
2023/11/01 03:00:00;;;;;;;2.53;1.43;;;11.90;99.90;;;;;;4991435;28;20449;-76
2023/11/01 03:02:26;;;;;;;2.33;1.37;;;11.80;99.90;;;;;;4983934;28;20460;-76
2023/11/01 03:04:52;;;;;;;4.17;1.47;;;11.80;99.90;;;;;;4981654;28;20443;-76
2023/11/01 03:07:18;;;;;;;1.97;1.40;;;11.80;99.90;;;;;;4968327;28;21007;-75
2023/11/01 03:09:44;;;;;;;1.83;1.20;;;11.80;99.90;;;;;;4982249;28;20417;-75
2023/11/01 03:12:10;;;;;;;4.53;1.70;;;11.90;99.90;;;;;;4982900;28;20289;-75
2023/11/01 03:14:38;;;;;;;2.10;1.47;;;11.80;99.90;;;;;;4980189;28;20210;-75
2023/11/01 03:17:05;;;;;;;2.50;1.60;;;11.80;99.90;;;;;;4983171;28;20573;-75
2023/11/01 03:19:31;;;;;;;1.67;1.43;;;11.90;99.90;;;;;;4984712;28;20473;-76
2023/11/01 03:21:56;;;;;;;4.40;1.50;;;11.90;99.90;;;;;;4965104;28;20458;-76
2023/11/01 03:24:22;;;;;;;1.50;1.37;;;11.90;99.90;;;;;;4983413;28;20294;-75
2023/11/01 03:26:48;;;;;;;2.03;1.80;;;11.90;99.90;;;;;;4981333;28;20226;-76
2023/11/01 03:29:13;;;;;;;2.37;1.50;;;11.90;99.90;;;;;;4982717;28;20214;-76
2023/11/01 03:31:39;;;;;;;4.20;1.37;;;11.90;99.90;;;;;;4965796;28;20218;-76
2023/11/01 03:34:05;;;;;;;2.63;1.40;;;11.90;99.90;;;;;;4970295;28;20215;-75
2023/11/01 03:36:30;;;;;;;6.57;1.83;;;11.90;99.90;;;;;;4999676;28;20216;-75
2023/11/01 03:38:56;;;;;;;2.93;1.53;;;11.90;99.90;;;;;;4995160;28;20265;-76
2023/11/01 03:41:22;;;;;;;2.90;1.70;;;11.90;99.90;;;;;;4984525;28;20261;-75
2023/11/01 03:43:48;;;;;;;4.87;1.73;;;11.90;99.90;;;;;;4965711;28;20210;-76
2023/11/01 03:46:13;;;;;;;4.63;1.30;;;11.90;99.90;;;;;;4982883;28;20218;-75
2023/11/01 03:48:39;;;;;;;2.13;1.40;;;11.90;99.90;;;;;;4982005;28;20222;-75
2023/11/01 03:51:05;;;;;;;2.23;1.17;;;11.90;99.90;;;;;;4984486;28;20252;-75
2023/11/01 03:53:31;;;;;;;1.53;1.43;;;11.90;99.90;;;;;;4971547;28;20221;-76
2023/11/01 03:55:57;;;;;;;1.37;1.27;;;11.90;99.90;;;;;;4960557;28;20835;-75
2023/11/01 03:58:23;;;;;;;1.30;1.20;;;11.90;99.90;;;;;;4983572;28;20298;-75
2023/11/01 04:00:50;;;;;;;2.90;1.27;;;11.90;99.90;;;;;;4984465;28;20712;-75
2023/11/01 04:03:16;;;;;;;2.23;1.57;;;11.90;99.90;;;;;;5005940;28;20245;-75
2023/11/01 04:05:41;;;;;;;2.87;1.77;;;11.90;99.90;;;;;;4971179;28;20971;-76
2023/11/01 04:08:07;;;;;;;4.87;1.50;;;12.00;99.90;;;;;;4990546;28;20233;-73
2023/11/01 04:10:33;;;;;;;3.77;2.00;;;11.90;99.90;;;;;;4990115;28;20728;-75
2023/11/01 04:12:59;;;;;;;3.57;1.80;;;11.90;99.90;;;;;;4986750;28;20704;-75
2023/11/01 04:15:24;;;;;;;6.53;1.60;;;11.90;99.90;;;;;;4990120;28;20697;-75
2023/11/01 04:17:50;;;;;;;2.93;1.27;;;11.90;99.90;;;;;;4968969;28;20237;-75
2023/11/01 04:20:16;;;;;;;5.57;2.00;;;11.90;99.90;;;;;;4988849;28;20301;-75
2023/11/01 04:22:42;;;;;;;4.97;1.60;;;12.00;99.90;;;;;;4986644;28;20222;-75
2023/11/01 04:25:11;;;;;;;5.47;1.83;;;11.90;99.90;;;;;;4988999;28;20288;-75
2023/11/01 04:27:41;;;;;;;2.80;1.57;;;11.90;99.90;;;;;;4984931;28;20234;-76
2023/11/01 04:30:12;;;;;;;1.73;1.63;;;11.90;99.90;;;;;;4973868;28;21141;-75
2023/11/01 04:32:38;;;;;;;4.00;1.77;;;12.00;99.90;;;;;;4987663;28;20461;-75
2023/11/01 04:35:09;;;;;;;6.43;1.67;;;12.00;99.90;;;;;;4973124;28;20454;-75
2023/11/01 04:37:38;;;;;;;7.30;1.80;;;12.00;99.90;;;;;;4973979;28;20578;-76
2023/11/01 04:40:08;;;;;;;1.43;1.33;;;12.00;99.90;;;;;;4988879;28;21010;-76
2023/11/01 04:42:40;;;;;;;1.60;1.50;;;12.00;99.90;;;;;;4976021;28;20446;-76
2023/11/01 04:45:10;;;;;;;1.57;1.47;;;12.00;99.90;;;;;;4989565;28;20959;-76
2023/11/01 04:47:38;;;;;;;7.30;1.97;;;12.00;99.90;;;;;;4981272;28;20457;-75
2023/11/01 04:50:08;;;;;;;2.87;1.63;;;12.00;99.90;;;;;;4989073;28;20541;-76
2023/11/01 04:52:42;;;;;;;2.60;1.37;;;12.00;99.90;;;;;;4983366;28;20457;-76
2023/11/01 04:55:10;;;;;;;3.53;2.10;;;12.00;99.90;;;;;;4988407;28;20508;-76
2023/11/01 04:57:36;;;;;;;3.33;1.80;;;12.00;99.90;;;;;;4994677;28;20577;-76
2023/11/01 05:00:09;;;;;;;1.47;1.37;;;12.00;99.90;;;;;;4988822;28;20500;-75
2023/11/01 05:02:38;;;;;;;4.80;1.93;;;11.90;99.90;;;;;;4983189;28;20466;-75
2023/11/01 05:05:05;;;;;;;3.47;1.73;;;11.90;99.90;;;;;;4988862;28;20466;-76
2023/11/01 05:07:35;;;;;;;3.70;2.30;;;12.00;99.90;;;;;;4974976;28;20450;-75
2023/11/01 05:10:02;;;;;;;3.37;1.63;;;12.00;99.90;;;;;;4988001;28;20460;-75
2023/11/01 05:12:28;;;;;;;4.53;1.93;;;12.00;99.90;;;;;;4966394;28;20462;-76
2023/11/01 05:14:54;;;;;;;8.00;2.70;;;12.00;99.90;;;;;;4980528;28;20453;-75
2023/11/01 05:17:21;;;;;;;1.60;1.50;;;12.00;99.90;;;;;;4969224;28;20561;-76
2023/11/01 05:19:46;;;;;;;2.50;1.50;;;12.00;99.90;;;;;;4968319;28;20206;-75
2023/11/01 05:22:12;;;;;;;2.87;2.10;;;12.00;99.90;;;;;;4985552;28;20461;-75
2023/11/01 05:24:38;;;;;;;2.70;1.60;;;12.00;99.90;;;;;;4983924;28;20245;-76
2023/11/01 05:27:04;;;;;;;2.50;2.00;;;12.00;99.90;;;;;;4985949;28;20223;-76
2023/11/01 05:29:31;;;;;;;3.27;1.87;;;12.00;99.90;;;;;;4986645;28;20302;-76
2023/11/01 05:31:57;;;;;;;2.37;1.90;;;12.00;99.90;;;;;;4990679;28;20210;-75
2023/11/01 05:34:23;;;;;;;2.70;1.60;;;12.00;99.90;;;;;;4994082;28;20963;-75
2023/11/01 05:36:50;;;;;;;2.23;1.67;;;12.00;99.90;;;;;;4967733;28;20294;-77
2023/11/01 05:39:16;;;;;;;4.53;1.90;;;12.00;99.90;;;;;;4997536;28;20469;-76
2023/11/01 05:41:46;;;;;;;2.13;1.90;;;12.00;99.90;;;;;;4994038;28;20449;-76
2023/11/01 05:44:12;;;;;;;1.97;1.87;;;12.00;99.90;;;;;;4998566;28;20461;-75
2023/11/01 05:46:38;;;;;;;5.93;1.80;;;12.10;99.90;;;;;;4997716;28;20528;-75
2023/11/01 05:49:04;;;;;;;2.63;1.70;;;12.00;99.90;;;;;;4985445;28;20866;-75
2023/11/01 05:51:30;;;;;;;2.13;1.70;;;12.10;99.90;;;;;;5002568;28;20226;-76
2023/11/01 05:53:56;;;;;;;4.67;1.47;;;12.00;99.90;;;;;;4978886;28;20244;-76
2023/11/01 05:56:23;;;;;;;5.20;2.40;;;12.00;99.90;;;;;;4979545;28;20462;-75
2023/11/01 05:58:49;;;;;;;3.03;1.93;;;12.00;99.90;;;;;;4998357;28;20233;-76
2023/11/01 06:01:15;;;;;;;1.77;1.50;;;12.00;99.90;;;;;;4982558;28;20984;-76
2023/11/01 06:03:40;;;;;;;4.93;1.90;;;12.00;99.90;;;;;;4983583;28;20520;-76
2023/11/01 06:06:08;;;;;;;3.30;1.77;;;12.00;99.90;;;;;;5000971;28;20260;-75
2023/11/01 06:08:33;;;;;;;7.60;1.97;;;12.00;99.90;;;;;;4978740;28;20222;-75
2023/11/01 06:10:59;;;;;;;1.50;1.40;;;12.00;99.90;;;;;;4998242;28;20457;-75
2023/11/01 06:13:25;;;;;;;2.00;1.80;;;12.00;99.90;;;;;;4985180;28;20783;-76
2023/11/01 06:15:51;;;;;;;2.23;1.70;;;11.90;99.90;;;;;;4983394;28;20214;-75
2023/11/01 06:18:17;;;;;;;2.70;2.03;;;12.00;99.90;;;;;;4985215;28;20229;-75
2023/11/01 06:20:43;;;;;;;5.03;2.53;;;12.00;99.90;;;;;;4993548;28;20465;-75
2023/11/01 06:23:09;;;;;;;2.47;2.00;;;12.00;99.90;;;;;;4998439;28;20454;-75
2023/11/01 06:25:37;;;;;;;4.40;1.80;;;12.00;99.90;;;;;;4970629;28;20462;-75
2023/11/01 06:28:02;;;;;;;4.50;1.50;;;12.00;99.90;;;;;;4980676;28;20243;-75
2023/11/01 06:30:29;;;;;;;5.33;2.67;;;12.00;99.90;;;;;;4984466;28;20470;-76
2023/11/01 06:32:54;;;;;;;7.80;3.13;;;12.00;99.90;;;;;;4989079;28;20226;-76
2023/11/01 06:35:20;;;;;;;5.00;2.60;;;12.00;99.90;;;;;;4997888;28;20469;-75
2023/11/01 06:37:48;;;;;;;3.60;1.70;;;12.00;99.90;;;;;;4977054;28;20222;-75
2023/11/01 06:40:14;;;;;;;3.07;1.90;;;12.00;99.90;;;;;;4990224;28;20300;-75
2023/11/01 06:42:40;;;;;;;7.30;2.10;;;12.00;99.90;;;;;;4975565;28;20469;-75
2023/11/01 06:45:06;;;;;;;3.30;2.43;;;12.00;99.90;;;;;;4979159;28;20466;-75
2023/11/01 06:47:32;;;;;;;3.00;2.20;;;12.10;99.90;;;;;;4997012;28;20229;-76
2023/11/01 06:49:57;;;;;;;4.73;2.50;;;12.00;99.90;;;;;;4981686;28;20442;-75
2023/11/01 06:52:23;;;;;;;3.00;1.63;;;12.00;99.90;;;;;;4990334;28;20696;-75
2023/11/01 06:54:49;;;;;;;5.17;2.23;;;12.00;99.90;;;;;;4994163;28;20218;-75
2023/11/01 06:57:15;;;;;;;3.70;1.87;;;12.00;99.90;;;;;;4998448;28;20214;-75
2023/11/01 06:59:41;;;;;;;3.13;2.00;;;12.00;99.90;;;;;;4982200;28;20700;-75
2023/11/01 07:02:08;;;;;;;3.43;1.70;;;12.00;99.90;;;;;;4986838;28;20781;-75
2023/11/01 07:04:33;;;;;;;2.73;1.87;;;12.00;99.90;;;;;;5004193;28;20601;-76
2023/11/01 07:06:59;;;;;;;6.20;2.10;;;12.00;99.90;;;;;;4964393;28;20477;-76
2023/11/01 07:09:25;;;;;;;9.30;2.30;;;12.00;99.90;;;;;;4983455;28;20209;-76
2023/11/01 07:11:51;;;;;;;3.27;2.30;;;12.00;99.90;;;;;;4985157;28;20234;-76
2023/11/01 07:14:19;;;;;;;1.63;1.27;;;12.00;99.90;;;;;;4986699;28;20245;-75
2023/11/01 07:16:45;;;;;;;3.43;1.77;;;12.00;99.90;;;;;;4983946;28;20314;-75
2023/11/01 07:19:12;;;;;;;6.63;1.57;;;12.00;99.90;;;;;;4983436;28;20560;-75
2023/11/01 07:21:40;;;;;;;4.33;2.03;;;12.00;99.90;;;;;;4978717;28;20979;-76
2023/11/01 07:24:09;;;;;;;3.20;2.10;;;12.00;99.90;;;;;;4965529;28;20526;-76
2023/11/01 07:26:35;;;;;;;3.17;1.80;;;12.00;99.90;;;;;;5007578;28;20842;-76
2023/11/01 07:29:02;;;;;;;1.90;1.80;;;12.00;99.90;;;;;;4993787;28;20461;-76
2023/11/01 07:31:27;;;;;;;6.30;2.37;;;12.00;99.90;;;;;;5002862;28;20461;-76
2023/11/01 07:33:53;;;;;;;2.40;2.17;;;12.00;99.90;;;;;;5002222;28;20469;-75
2023/11/01 07:36:19;;;;;;;6.57;2.47;;;12.00;99.90;;;;;;4988309;28;20218;-75
2023/11/01 07:38:46;;;;;;;6.30;2.50;;;12.10;99.90;;;;;;4966699;28;20233;-75
2023/11/01 07:41:14;;;;;;;8.93;2.20;;;12.10;99.90;;;;;;4994018;28;20994;-75
2023/11/01 07:43:40;;;;;;;6.73;2.63;;;12.10;99.90;;;;;;4983882;28;20550;-76
2023/11/01 07:46:08;;;;;;;2.03;1.60;;;12.10;99.90;;;;;;4995748;28;20453;-75
2023/11/01 07:48:34;;;;;;;6.80;1.80;;;12.10;99.90;;;;;;5002933;28;20500;-75
2023/11/01 07:51:02;;;;;;;1.80;1.50;;;12.10;99.90;;;;;;5001220;28;20565;-76
2023/11/01 07:53:27;;;;;;;2.17;2.03;;;12.10;99.90;;;;;;5011934;28;20222;-76
2023/11/01 07:55:53;;;;;;;9.13;2.17;;;12.10;99.90;;;;;;4979696;28;20481;-76
2023/11/01 07:58:19;;;;;;;5.53;2.30;;;12.20;99.90;;;;;;5017984;28;20226;-76
2023/11/01 08:00:44;;;;;;;5.73;2.03;;;12.20;99.90;;;;;;4965732;28;20230;-75
2023/11/01 08:03:10;;;;;;;4.63;2.27;;;12.20;99.90;;;;;;4997059;28;20430;-76
2023/11/01 08:05:36;;;;;;;3.03;2.10;;;12.20;99.90;;;;;;4987327;28;20601;-75
2023/11/01 08:08:01;;;;;;;3.77;2.37;;;12.20;99.90;;;;;;4970669;28;20223;-76
2023/11/01 08:10:27;;;;;;;4.60;2.43;;;12.20;99.90;;;;;;4982061;28;20623;-75
2023/11/01 08:12:53;;;;;;;7.03;2.20;;;12.30;99.90;;;;;;5006495;28;20368;-76
2023/11/01 08:15:19;;;;;;;6.63;2.43;;;12.30;99.90;;;;;;4998469;28;20218;-76
2023/11/01 08:17:45;;;;;;;6.33;2.83;;;12.30;99.90;;;;;;4972774;28;20478;-75
2023/11/01 08:20:11;;;;;;;9.80;2.30;;;12.30;99.90;;;;;;4980733;28;20225;-76
2023/11/01 08:22:36;;;;;;;3.93;1.97;;;12.30;99.90;;;;;;4982157;28;20210;-75
2023/11/01 08:25:02;;;;;;;5.00;1.60;;;12.30;99.90;;;;;;4983819;28;20612;-76
2023/11/01 08:27:28;;;;;;;3.33;1.87;;;12.30;99.90;;;;;;4982119;28;20222;-76
2023/11/01 08:29:54;;;;;;;7.43;2.20;;;12.30;99.90;;;;;;4980742;28;20230;-76
2023/11/01 08:32:19;;;;;;;2.30;1.70;;;12.30;99.90;;;;;;4981487;28;20984;-76
2023/11/01 08:34:45;;;;;;;3.80;2.43;;;12.30;99.90;;;;;;4988849;28;20219;-76
2023/11/01 08:37:11;;;;;;;7.27;1.70;;;12.30;99.90;;;;;;4981639;28;20215;-75
2023/11/01 08:39:36;;;;;;;2.50;1.87;;;12.40;99.90;;;;;;4997609;28;20242;-76
2023/11/01 08:42:02;;;;;;;4.57;2.10;;;12.40;99.90;;;;;;4986603;28;20312;-76
2023/11/01 08:44:28;;;;;;;4.43;2.53;;;12.40;99.90;;;;;;5002782;28;20679;-75
2023/11/01 08:46:54;;;;;;;5.23;1.60;;;12.40;99.90;;;;;;4991241;28;20596;-76
2023/11/01 08:49:20;;;;;;;2.27;2.07;;;12.40;99.90;;;;;;4983223;28;20676;-76
2023/11/01 08:51:47;;;;;;;1.90;1.70;;;12.40;99.90;;;;;;4983447;28;20254;-75
2023/11/01 08:54:13;;;;;;;4.10;2.43;;;12.50;99.90;;;;;;4990681;28;20468;-75
2023/11/01 08:56:40;;;;;;;2.43;1.57;;;12.50;99.90;;;;;;5002888;28;20476;-76
2023/11/01 08:59:06;;;;;;;1.53;1.43;;;12.50;99.90;;;;;;4996776;28;20474;-75
2023/11/01 09:01:33;;;;;;;3.43;2.03;;;12.50;99.90;;;;;;5003104;28;20460;-76
2023/11/01 09:03:59;;;;;;;3.63;1.63;;;12.50;99.90;;;;;;4990017;28;20544;-75
2023/11/01 09:06:25;;;;;;;5.33;4.03;;;12.60;99.90;;;;;;4984730;28;20577;-76
2023/11/01 09:08:51;;;;;;;4.00;2.00;;;12.60;99.90;;;;;;5000534;28;20470;-76
2023/11/01 09:11:16;;;;;;;1.90;1.53;;;12.60;99.90;;;;;;4986122;28;20462;-75
2023/11/01 09:13:45;;;;;;;5.70;1.93;;;12.60;99.90;;;;;;4976525;28;20226;-75
2023/11/01 09:16:11;;;;;;;3.07;1.63;;;12.60;99.90;;;;;;4989867;28;20237;-75
2023/11/01 09:18:36;;;;;;;4.10;1.83;;;12.60;99.90;;;;;;5004614;28;20530;-77
2023/11/01 09:21:02;;;;;;;2.83;1.90;;;12.60;99.90;;;;;;4994164;28;20302;-75
2023/11/01 09:23:28;;;;;;;2.57;1.30;;;12.60;99.90;;;;;;4984291;28;20222;-76
2023/11/01 09:25:54;;;;;;;2.73;1.83;;;12.70;99.90;;;;;;4993949;28;20468;-76
2023/11/01 09:28:20;;;;;;;3.07;1.80;;;12.60;99.90;;;;;;5002257;28;20264;-75
2023/11/01 09:30:46;;;;;;;2.57;1.90;;;12.70;99.90;;;;;;4983074;28;20473;-76
2023/11/01 09:33:11;;;;;;;3.30;1.60;;;12.70;99.90;;;;;;4974773;28;20300;-75
2023/11/01 09:35:37;;;;;;;4.00;1.30;;;12.70;99.90;;;;;;4985701;28;20302;-76
2023/11/01 09:38:03;;;;;;;2.30;1.37;;;12.70;99.90;;;;;;4997119;28;20230;-76
2023/11/01 09:40:29;;;;;;;5.77;2.10;;;12.70;99.90;;;;;;4996870;28;20637;-76
2023/11/01 09:42:55;;;;;;;1.87;1.63;;;12.70;99.90;;;;;;5000369;28;20317;-76
2023/11/01 09:45:21;;;;;;;3.53;2.30;;;12.80;99.90;;;;;;4993344;28;20222;-75
2023/11/01 09:47:50;;;;;;;5.63;2.87;;;12.80;99.90;;;;;;4984454;28;20457;-76
2023/11/01 09:50:17;;;;;;;4.07;1.87;;;12.80;99.90;;;;;;4998148;28;20297;-75
2023/11/01 09:52:43;;;;;;;6.80;2.30;;;12.90;99.90;;;;;;4993712;28;20492;-76
2023/11/01 09:55:12;;;;;;;4.80;2.23;;;12.90;99.90;;;;;;4985798;28;20979;-76
2023/11/01 09:57:44;;;;;;;3.87;1.80;;;12.90;99.90;;;;;;4990729;28;20221;-76
2023/11/01 10:00:11;;;;;;;1.97;1.60;;;12.90;99.90;;;;;;4996432;28;20487;-75
2023/11/01 10:02:37;;;;;;;7.50;1.70;;;12.90;99.90;;;;;;4990062;28;20484;-76
2023/11/01 10:05:04;;;;;;;3.27;1.50;;;12.90;99.90;;;;;;4985781;28;20460;-76
2023/11/01 10:07:30;;;;;;;2.30;1.40;;;12.90;99.90;;;;;;5016864;28;20467;-75
2023/11/01 10:09:56;;;;;;;3.83;1.70;;;13.00;99.90;;;;;;4983437;28;20465;-75
2023/11/01 10:12:22;;;;;;;5.03;1.70;;;13.00;99.90;;;;;;4965989;28;20473;-75
2023/11/01 10:14:48;;;;;;;3.77;1.90;;;13.00;99.90;;;;;;4998000;28;20234;-75
2023/11/01 10:17:14;;;;;;;2.70;2.27;;;13.00;99.90;;;;;;4990358;28;20517;-75
2023/11/01 10:19:43;;;;;;;5.83;1.80;;;13.00;99.90;;;;;;4983277;28;20233;-75
2023/11/01 10:22:10;;;;;;;1.80;1.70;;;13.00;99.90;;;;;;4985954;28;20225;-75
2023/11/01 10:24:36;;;;;;;5.90;2.00;;;13.00;99.90;;;;;;4983267;28;20477;-75
2023/11/01 10:27:02;;;;;;;2.60;1.77;;;13.00;99.90;;;;;;4967470;28;20465;-75
2023/11/01 10:29:28;;;;;;;2.27;1.40;;;13.00;99.90;;;;;;4985249;28;20626;-75
2023/11/01 10:32:00;;;;;;;4.40;1.60;;;13.00;99.90;;;;;;4988552;28;20269;-75
2023/11/01 10:34:28;;;;;;;2.40;1.97;;;13.10;99.90;;;;;;4994863;28;20218;-75
2023/11/01 10:36:54;;;;;;;7.00;2.57;;;13.10;99.90;;;;;;4990497;28;20488;-76
2023/11/01 10:39:24;;;;;;;3.30;2.60;;;13.10;99.90;;;;;;4987667;28;20493;-75
2023/11/01 10:41:51;;;;;;;8.37;2.27;;;13.10;99.90;;;;;;4977602;28;20553;-75
2023/11/01 10:44:22;;;;;;;8.90;1.83;;;13.10;99.90;;;;;;4996519;28;20470;-75
2023/11/01 10:46:49;;;;;;;5.00;1.87;;;13.10;99.90;;;;;;4990042;28;20469;-76
2023/11/01 10:49:15;;;;;;;3.10;1.83;;;13.10;99.90;;;;;;4985058;28;20466;-74
2023/11/01 10:51:42;;;;;;;3.90;2.03;;;13.20;99.90;;;;;;4989984;28;20521;-75
2023/11/01 10:54:09;;;;;;;2.03;1.30;;;13.10;99.90;;;;;;4996618;28;20460;-75
2023/11/01 10:56:35;;;;;;;4.20;1.90;;;13.10;99.90;;;;;;4984354;28;21043;-75
2023/11/01 10:59:12;;;;;;;6.27;2.07;;;13.20;99.90;;;;;;4979622;28;20477;-74
2023/11/01 11:01:50;;;;;;;3.60;1.80;;;13.20;99.90;;;;;;4994718;28;21009;-75
2023/11/01 11:04:41;;;;;;;4.07;1.20;;;13.20;99.90;;;;;;4984671;28;20839;-75
2023/11/01 11:07:32;;;;;;;3.17;1.80;;;13.30;99.90;;;;;;4979581;28;20553;-75
2023/11/01 11:10:26;;;;;;;5.03;1.70;;;13.30;99.90;;;;;;4967469;28;20466;-76
2023/11/01 11:13:17;;;;;;;2.67;1.50;;;13.30;99.90;;;;;;5009078;28;20470;-76
2023/11/01 11:15:56;;;;;;;1.53;1.17;;;13.30;99.90;;;;;;4982252;28;20524;-75
2023/11/01 11:18:28;;;;;;;2.37;1.93;;;13.30;99.90;;;;;;5011963;28;20477;-75
2023/11/01 11:20:55;;;;;;;4.50;1.73;;;13.40;99.90;;;;;;4977685;28;20485;-75
2023/11/01 11:23:32;;;;;;;2.07;1.30;;;13.40;99.90;;;;;;4979672;28;20983;-75
2023/11/01 11:26:04;;;;;;;2.63;1.37;;;13.40;99.90;;;;;;4972505;28;20465;-75
2023/11/01 11:28:37;;;;;;;3.57;1.53;;;13.40;99.90;;;;;;4974518;28;20516;-75
2023/11/01 11:31:16;;;;;;;7.50;1.50;;;13.50;99.90;;;;;;4976346;28;20489;-75
2023/11/01 11:33:44;;;;;;;5.50;1.97;;;13.50;99.90;;;;;;4972282;28;20469;-75
2023/11/01 11:36:23;;;;;;;2.90;1.77;;;13.50;99.90;;;;;;4975361;28;20550;-75
2023/11/01 11:38:58;;;;;;;1.63;1.43;;;13.50;99.90;;;;;;4974098;28;20569;-76
2023/11/01 11:41:26;;;;;;;3.50;1.70;;;13.50;99.90;;;;;;5006944;28;20469;-75
2023/11/01 11:43:58;;;;;;;1.50;1.40;;;13.50;99.90;;;;;;4992457;28;20469;-75
2023/11/01 11:46:34;;;;;;;6.53;1.73;;;13.60;99.90;;;;;;4980211;28;20473;-74
2023/11/01 11:49:02;;;;;;;3.73;1.80;;;13.60;99.90;;;;;;5005140;28;20500;-76
2023/11/01 11:51:29;;;;;;;2.30;1.63;;;13.60;99.90;;;;;;5009049;28;20474;-75
2023/11/01 11:53:56;;;;;;;2.40;1.43;;;13.70;99.90;;;;;;4981415;28;20461;-75
2023/11/01 11:56:22;;;;;;;3.73;1.20;;;13.70;99.90;;;;;;4979695;28;20467;-75
2023/11/01 11:58:48;;;;;;;2.67;1.57;;;13.70;99.90;;;;;;4968177;28;20470;-76
2023/11/01 12:01:27;;;;;;;1.40;1.30;;;13.70;99.90;;;;;;4977587;28;20469;-75
2023/11/01 12:03:59;;;;;;;3.60;1.50;;;13.70;99.90;;;;;;4989631;28;20487;-76
2023/11/01 12:06:26;;;;;;;2.47;1.40;;;13.70;99.90;;;;;;5001000;28;20484;-75
2023/11/01 12:08:53;;;;;;;4.20;1.70;;;13.70;99.90;;;;;;4978575;28;20466;-75
2023/11/01 12:11:18;;;;;;;4.40;1.50;;;13.70;99.90;;;;;;4967583;28;20849;-75
2023/11/01 12:13:48;;;;;;;1.73;1.20;;;13.80;99.90;;;;;;4978432;28;20520;-76
2023/11/01 12:16:27;;;;;;;1.90;1.20;;;13.80;99.90;;;;;;4996613;28;20232;-76
2023/11/01 12:19:09;;;;;;;0.80;0.77;;;13.80;99.90;;;;;;4996118;28;20469;-76
2023/11/01 12:21:39;;;;;;;2.73;1.30;;;13.80;99.90;;;;;;4999588;28;20599;-76
2023/11/01 12:24:05;;;;;;;1.90;1.50;;;13.90;99.90;;;;;;5001475;28;20845;-76
2023/11/01 12:26:31;;;;;;;2.50;1.30;;;13.90;99.90;;;;;;5000961;28;20476;-75
2023/11/01 12:28:56;;;;;;;1.10;1.10;;;14.00;99.90;;;;;;4985830;28;20580;-75
2023/11/01 12:31:22;;;;;;;1.20;1.10;;;14.10;99.90;;;;;;5003248;28;20279;-77
2023/11/01 12:33:47;;;;;;;4.57;1.30;;;14.10;99.90;;;;;;4987144;28;20228;-76
2023/11/01 12:36:27;;;;;;;4.20;1.90;;;14.10;99.90;;;;;;5004826;28;20221;-75
2023/11/01 12:38:57;;;;;;;2.10;1.40;;;14.20;99.90;;;;;;4998830;28;20690;-76
2023/11/01 12:41:24;;;;;;;2.73;1.80;;;14.20;99.90;;;;;;5000917;28;20829;-76
2023/11/01 12:43:50;;;;;;;2.40;1.40;;;14.20;99.90;;;;;;4998221;28;20472;-76
2023/11/01 12:46:16;;;;;;;1.60;1.40;;;14.20;99.90;;;;;;4989938;28;20468;-77
2023/11/01 12:48:42;;;;;;;5.73;1.07;;;14.20;99.90;;;;;;5001216;28;20298;-75